^^
Station Historical Data
Daily Summary for April 4, 2017 Units:  Metric    English   Both
« Previous Day
Next Day »
Daily Weekly Monthly Yearly Custom
  High: Low: Average:
Temperature: 36.7 °C 19.3 °C 26.6 °C
Dew Point: 9.5 °C 2.2 °C 4.4 °C
Humidity: 38% 12% 26%
Wind Speed: 22.7km/h 0km/h 4.3km/h
Wind Gust: 25.7km/h - -
Wind- - SW
Pressure: 1014.4 hPa 1009.7 hPa -
Precipitation: 0 mm    
Historical Graphs
 
 
Tabular Data for April 4, 2017
Time Temperature Dew Point Pressure Wind Wind Speed Wind Gust Humidity Rainfall Rate (Hourly) solar Conditions
00:02 24.5 °C 2.6 °C 1013.4 hPa WSW 7.9 km/h 9.7 km/h 24% 0 mm 0.0 W/m2
00:07 24.5 °C 2.6 °C 1013.4 hPa WSW 7.9 km/h 11.3 km/h 24% 0 mm 0.0 W/m2
00:12 24.6 °C 2.7 °C 1013.4 hPa WSW 6.4 km/h 8 km/h 24% 0 mm 0.0 W/m2
00:17 24.4 °C 2.5 °C 1013.4 hPa WSW 6.4 km/h 8 km/h 24% 0 mm 0.0 W/m2
00:22 24.2 °C 2.9 °C 1013.4 hPa WSW 7.9 km/h 8 km/h 25% 0 mm 0.0 W/m2
00:28 24.2 °C 2.9 °C 1013.4 hPa WSW 4.7 km/h 6.4 km/h 25% 0 mm 0.0 W/m2
00:33 24.1 °C 2.8 °C 1013.4 hPa WSW 4.7 km/h 8 km/h 25% 0 mm 0.0 W/m2
00:38 24.1 °C 2.8 °C 1013.4 hPa WSW 6.4 km/h 6.4 km/h 25% 0 mm 0.0 W/m2
00:43 23.8 °C 2.6 °C 1013.4 hPa WSW 4.7 km/h 8 km/h 25% 0 mm 0.0 W/m2
00:48 23.7 °C 2.5 °C 1013.4 hPa WSW 4.7 km/h 6.4 km/h 25% 0 mm 0.0 W/m2
00:53 23.6 °C 2.4 °C 1013.4 hPa WSW 3.2 km/h 4.8 km/h 25% 0 mm 0.0 W/m2
00:58 23.4 °C 2.2 °C 1013.4 hPa WSW 4.7 km/h 8 km/h 25% 0 mm 0.0 W/m2
01:08 23.7 °C 2.5 °C 1013.4 hPa WSW 6.4 km/h 9.7 km/h 25% 0 mm 0.0 W/m2
01:13 23.5 °C 2.3 °C 1013.4 hPa WSW 4.7 km/h 6.4 km/h 25% 0 mm 0.0 W/m2
01:18 23.5 °C 2.3 °C 1013.4 hPa Calm   8 km/h 25% 0 mm 0.0 W/m2
01:28 24.1 °C 2.8 °C 1013.4 hPa WSW 7.9 km/h 11.3 km/h 25% 0 mm 0.0 W/m2
01:34 24.3 °C 3 °C 1013.4 hPa WSW 6.4 km/h 8 km/h 25% 0 mm 0.0 W/m2
01:39 23.8 °C 2.6 °C 1013.1 hPa WSW 6.4 km/h 6.4 km/h 25% 0 mm 0.0 W/m2
01:44 23.3 °C 2.7 °C 1013.4 hPa WSW 6.4 km/h 6.4 km/h 26% 0 mm 0.0 W/m2
01:54 22.9 °C 2.9 °C 1013.4 hPa WSW 6.4 km/h 8 km/h 27% 0 mm 0.0 W/m2
01:59 22.9 °C 2.9 °C 1013.1 hPa WSW 7.9 km/h 8 km/h 27% 0 mm 0.0 W/m2
02:04 23 °C 3 °C 1013.1 hPa WSW 9.7 km/h 11.3 km/h 27% 0 mm 0.0 W/m2
02:09 23.2 °C 2.6 °C 1013.1 hPa WSW 9.7 km/h 11.3 km/h 26% 0 mm 0.0 W/m2
02:19 23.2 °C 2.6 °C 1013.1 hPa WSW 4.7 km/h 4.8 km/h 26% 0 mm 0.0 W/m2
02:24 23.1 °C 3.1 °C 1013.1 hPa WSW 4.7 km/h 6.4 km/h 27% 0 mm 0.0 W/m2
02:29 22.9 °C 2.9 °C 1013.1 hPa WSW 6.4 km/h 8 km/h 27% 0 mm 0.0 W/m2
02:35 22.8 °C 3.3 °C 1013.1 hPa WSW 6.4 km/h 8 km/h 28% 0 mm 0.0 W/m2
02:40 22.6 °C 3.7 °C 1013.1 hPa WSW 6.4 km/h 8 km/h 29% 0 mm 0.0 W/m2
02:45 22.6 °C 3.7 °C 1013.1 hPa WSW 6.4 km/h 8 km/h 29% 0 mm 0.0 W/m2
02:50 22.4 °C 3.5 °C 1012.8 hPa WSW 6.4 km/h 8 km/h 29% 0 mm 0.0 W/m2
02:55 22.3 °C 3.4 °C 1012.8 hPa WSW 4.7 km/h 6.4 km/h 29% 0 mm 0.0 W/m2
03:00 22.1 °C 3.7 °C 1012.8 hPa Calm     30% 0 mm 0.0 W/m2
03:05 21.8 °C 3.5 °C 1012.8 hPa Calm     30% 0 mm 0.0 W/m2
03:16 21.6 °C 3.7 °C 1012.8 hPa Calm     31% 0 mm 0.0 W/m2
03:27 21.3 °C 3.9 °C 1012.8 hPa Calm     32% 0 mm 0.0 W/m2
03:32 21.2 °C 3.8 °C 1012.8 hPa Calm     32% 0 mm 0.0 W/m2
03:38 21.1 °C 3.8 °C 1012.8 hPa Calm     32% 0 mm 0.0 W/m2
03:43 21.1 °C 3.8 °C 1012.8 hPa Calm     32% 0 mm 0.0 W/m2
03:48 21.1 °C 4.2 °C 1012.8 hPa Calm     33% 0 mm 0.0 W/m2
03:54 21 °C 4.1 °C 1012.8 hPa Calm     33% 0 mm 0.0 W/m2
03:59 20.9 °C 4 °C 1012.8 hPa Calm     33% 0 mm 0.0 W/m2
04:04 20.8 °C 3.9 °C 1012.8 hPa Calm     33% 0 mm 0.0 W/m2
04:14 20.6 °C 4.2 °C 1012.8 hPa Calm     34% 0 mm 0.0 W/m2
04:19 20.5 °C 4.1 °C 1012.8 hPa Calm     34% 0 mm 0.0 W/m2
04:25 20.3 °C 3.9 °C 1012.8 hPa Calm     34% 0 mm 0.0 W/m2
04:30 20.2 °C 4.2 °C 1012.8 hPa Calm     35% 0 mm 0.0 W/m2
04:35 20.1 °C 4.2 °C 1012.8 hPa Calm     35% 0 mm 0.0 W/m2
04:40 20.1 °C 4.2 °C 1012.8 hPa Calm     35% 0 mm 0.0 W/m2
04:46 20 °C 4.5 °C 1012.8 hPa Calm     36% 0 mm 0.0 W/m2
04:56 19.7 °C 4.2 °C 1012.8 hPa Calm     36% 0 mm 0.0 W/m2
05:01 19.7 °C 4.2 °C 1012.8 hPa Calm     36% 0 mm 0.0 W/m2
05:06 19.6 °C 4.1 °C 1013.1 hPa Calm     36% 0 mm 0.0 W/m2
05:11 19.6 °C 4.1 °C 1013.1 hPa Calm     36% 0 mm 0.0 W/m2
05:17 19.6 °C 4.1 °C 1013.1 hPa Calm     36% 0 mm 0.0 W/m2
05:22 19.6 °C 4.1 °C 1013.1 hPa Calm     36% 0 mm 0.0 W/m2
05:27 19.6 °C 4.1 °C 1013.1 hPa Calm     36% 0 mm 0.0 W/m2
05:32 19.5 °C 4 °C 1013.1 hPa Calm     36% 0 mm 0.0 W/m2
05:38 19.4 °C 3.9 °C 1013.1 hPa Calm     36% 0 mm 0.0 W/m2
05:43 19.4 °C 3.9 °C 1013.1 hPa Calm     36% 0 mm 0.0 W/m2
05:48 19.3 °C 4.2 °C 1013.4 hPa Calm     37% 0 mm 0.0 W/m2
05:58 19.3 °C 4.2 °C 1013.4 hPa Calm     37% 0 mm 0.0 W/m2
06:03 19.6 °C 4.5 °C 1013.4 hPa Calm     37% 0 mm 5.0 W/m2
06:09 19.8 °C 4.3 °C 1013.4 hPa Calm     36% 0 mm 9.0 W/m2
06:14 20 °C 4.5 °C 1013.4 hPa Calm     36% 0 mm 12.0 W/m2
06:19 20.1 °C 4.6 °C 1013.8 hPa Calm     36% 0 mm 16.0 W/m2
06:30 20.1 °C 4.2 °C 1013.8 hPa Calm     35% 0 mm 25.0 W/m2
06:46 20.7 °C 4.7 °C 1013.8 hPa Calm     35% 0 mm 81.0 W/m2
06:48 20.8 °C 4.4 °C 1013.8 hPa Calm     34% 0 mm 102.0 W/m2
06:56 20.9 °C 4.4 °C 1013.8 hPa Calm     34% 0 mm 118.0 W/m2
07:01 21.2 °C 4.7 °C 1013.8 hPa Calm     34% 0 mm 139.0 W/m2
07:08 21.7 °C 5.6 °C 1014.1 hPa Calm     35% 0 mm 162.0 W/m2
07:09 22.2 °C 5.2 °C 1014.1 hPa Calm     33% 0 mm 188.0 W/m2
07:26 22.8 °C 4.8 °C 1014.1 hPa Calm     31% 0 mm 225.0 W/m2
07:34 23.7 °C 4.6 °C 1014.1 hPa Calm     29% 0 mm 278.0 W/m2
07:50 24.6 °C 4.4 °C 1014.1 hPa Calm     27% 0 mm 318.0 W/m2
08:00 25.2 °C 4.9 °C 1014.4 hPa Calm     27% 0 mm 353.0 W/m2
08:11 25.8 °C 4.3 °C 1014.4 hPa Calm     25% 0 mm 381.0 W/m2
08:21 26.4 °C 4.2 °C 1014.4 hPa Calm     24% 0 mm 420.0 W/m2
08:32 26.8 °C 3.9 °C 1014.4 hPa Calm     23% 0 mm 450.0 W/m2
08:36 27.2 °C 4.3 °C 1014.4 hPa Calm     23% 0 mm 485.0 W/m2
08:50 27.8 °C 4.1 °C 1014.4 hPa Calm     22% 0 mm 515.0 W/m2
09:00 28.5 °C 3.4 °C 1014.4 hPa Calm     20% 0 mm 541.0 W/m2
09:01 28.9 °C 3.7 °C 1014.4 hPa Calm     20% 0 mm 555.0 W/m2
09:12 29.3 °C 3.3 °C 1014.4 hPa Calm     19% 0 mm 587.0 W/m2
09:25 29.7 °C 3.6 °C 1014.4 hPa Calm     19% 0 mm 612.0 W/m2
10:26 31.9 °C 4.6 °C 1014.1 hPa WSW 7.9 km/h 12.9 km/h 18% 0 mm 729.0 W/m2
10:35 32.4 °C 4.2 °C 1013.8 hPa Calm   6.4 km/h 17% 0 mm 747.0 W/m2
10:52 32.7 °C 4.5 °C 1013.4 hPa Calm     17% 0 mm 765.0 W/m2
10:53 32.9 °C 4.6 °C 1013.4 hPa SW 6.4 km/h 14.5 km/h 17% 0 mm 770.0 W/m2
11:08 33.2 °C 4 °C 1013.4 hPa SW 9.7 km/h 12.9 km/h 16% 0 mm 784.0 W/m2
11:14 33.2 °C 4 °C 1013.1 hPa Calm     16% 0 mm 791.0 W/m2
11:30 33.2 °C 4 °C 1013.1 hPa Calm     16% 0 mm 796.0 W/m2
11:34 33.9 °C 4.6 °C 1012.8 hPa Calm     16% 0 mm 800.0 W/m2
11:57 34.1 °C 4.7 °C 1012.4 hPa SW 14.3 km/h 16.1 km/h 16% 0 mm 803.0 W/m2
12:05 34.1 °C 4.7 °C 1012.4 hPa Calm     16% 0 mm 800.0 W/m2
12:20 35.2 °C 4.7 °C 1011.7 hPa Calm     15% 0 mm 795.0 W/m2
12:42 35.9 °C 4.2 °C 1011.7 hPa Calm     14% 0 mm 784.0 W/m2
12:54 35.6 °C 4 °C 1011.4 hPa Calm     14% 0 mm 772.0 W/m2
13:08 35.6 °C 4 °C 1011.1 hPa SW 1.4 km/h 3.2 km/h 14% 0 mm 752.0 W/m2
13:12 35.6 °C 4 °C 1011.1 hPa Calm     14% 0 mm 738.0 W/m2
13:30 35.9 °C 4.2 °C 1010.7 hPa SW 3.2 km/h 14.5 km/h 14% 0 mm 724.0 W/m2
13:37 36.3 °C 4.5 °C 1010.7 hPa Calm     14% 0 mm 693.0 W/m2
13:53 36.7 °C 3.8 °C 1010.7 hPa Calm   3.2 km/h 13% 0 mm 663.0 W/m2
14:14 36.2 °C 3.4 °C 1010.4 hPa Calm   8 km/h 13% 0 mm 629.0 W/m2
14:18 36.7 °C 3.8 °C 1010.4 hPa Calm   4.8 km/h 13% 0 mm 605.0 W/m2
14:28 36.4 °C 3.6 °C 1010.4 hPa Calm   9.7 km/h 13% 0 mm 578.0 W/m2
14:38 36.4 °C 3.6 °C 1010 hPa West 7.9 km/h 11.3 km/h 13% 0 mm 550.0 W/m2
15:00 36.7 °C 3.8 °C 1010 hPa West 22.7 km/h 22.7 km/h 13% 0 mm 506.0 W/m2
15:13 36.6 °C 3.7 °C 1010 hPa WNW 19.5 km/h 20.9 km/h 13% 0 mm 466.0 W/m2
15:19 36.4 °C 3.6 °C 1010 hPa Calm     13% 0 mm 429.0 W/m2
15:29 36.7 °C 3.8 °C 1010 hPa Calm   11.3 km/h 13% 0 mm 399.0 W/m2
15:39 36.7 °C 3.8 °C 1010 hPa WNW 11.1 km/h 16.1 km/h 13% 0 mm 380.0 W/m2
15:50 36.6 °C 3.7 °C 1010 hPa WNW 9.7 km/h 17.7 km/h 13% 0 mm 341.0 W/m2
16:01 36.7 °C 3.8 °C 1009.7 hPa WNW 9.7 km/h 17.7 km/h 13% 0 mm 313.0 W/m2
16:10 36.7 °C 3.8 °C 1009.7 hPa Calm     13% 0 mm 265.0 W/m2
16:26 36.7 °C 3.8 °C 1009.7 hPa WNW 1.4 km/h 8 km/h 13% 0 mm 225.0 W/m2
16:37 36.5 °C 3.6 °C 1009.7 hPa Calm   3.2 km/h 13% 0 mm 185.0 W/m2
16:52 36.5 °C 2.5 °C 1009.7 hPa Calm     12% 0 mm 121.0 W/m2
17:08 35.9 °C 3.2 °C 1009.7 hPa Calm   4.8 km/h 13% 0 mm 65.0 W/m2
17:24 35.2 °C 4.7 °C 1010 hPa WSW 16.3 km/h 25.7 km/h 15% 0 mm 28.0 W/m2
17:31 34 °C 4.6 °C 1010 hPa SW 20.9 km/h 22.5 km/h 16% 0 mm 11.0 W/m2
17:54 33.3 °C 4.1 °C 1010 hPa SSW 20.9 km/h 20.9 km/h 16% 0 mm 0.0 W/m2
18:09 32.7 °C 4.5 °C 1010.4 hPa SSW 17.7 km/h 22.5 km/h 17% 0 mm 0.0 W/m2
18:24 32.2 °C 4.9 °C 1010.4 hPa SSW 19.5 km/h 20.9 km/h 18% 0 mm 0.0 W/m2
18:32 31.7 °C 5.2 °C 1010.7 hPa SSW 9.7 km/h 14.5 km/h 19% 0 mm 0.0 W/m2
18:54 31.2 °C 4.8 °C 1011.1 hPa SSW 11.1 km/h 14.5 km/h 19% 0 mm 0.0 W/m2
19:10 30.9 °C 5.3 °C 1011.1 hPa SSW 13 km/h 17.7 km/h 20% 0 mm 0.0 W/m2
19:18 30.5 °C 5 °C 1011.4 hPa SSW 19.5 km/h 19.5 km/h 20% 0 mm 0.0 W/m2
19:33 30.3 °C 4.8 °C 1011.7 hPa SSW 14.3 km/h 14.5 km/h 20% 0 mm 0.0 W/m2
19:48 29.8 °C 5.8 °C 1011.7 hPa SSW 14.3 km/h 19.3 km/h 22% 0 mm 0.0 W/m2
20:03 29.4 °C 6.1 °C 1012.1 hPa SSW 13 km/h 16.1 km/h 23% 0 mm 0.0 W/m2
20:25 29 °C 7.6 °C 1012.1 hPa SSW 20.9 km/h 24.1 km/h 26% 0 mm 0.0 W/m2
20:33 28.4 °C 7.6 °C 1012.1 hPa SSW 14.3 km/h 17.7 km/h 27% 0 mm 0.0 W/m2
20:48 27.9 °C 7.7 °C 1012.4 hPa SSW 11.1 km/h 16.1 km/h 28% 0 mm 0.0 W/m2
20:55 27.9 °C 7.7 °C 1012.4 hPa SSW 11.1 km/h 16.1 km/h 28% 0 mm 0.0 W/m2
21:10 27.5 °C 8.4 °C 1012.4 hPa SSW 9.7 km/h 14.5 km/h 30% 0 mm 0.0 W/m2
21:23 27.2 °C 8.6 °C 1012.8 hPa SSW 13 km/h 16.1 km/h 31% 0 mm 0.0 W/m2
21:33 27.1 °C 8.5 °C 1012.8 hPa SSW 13 km/h 16.1 km/h 31% 0 mm 0.0 W/m2
21:44 26.7 °C 8.6 °C 1012.8 hPa SSW 7.9 km/h 9.7 km/h 32% 0 mm 0.0 W/m2
21:54 26.4 °C 8.8 °C 1012.8 hPa SSW 4.7 km/h 8 km/h 33% 0 mm 0.0 W/m2
22:04 26.1 °C 9 °C 1012.8 hPa SSW 6.4 km/h 9.7 km/h 34% 0 mm 0.0 W/m2
22:13 25.8 °C 9.2 °C 1013.1 hPa SSW 13 km/h 13 km/h 35% 0 mm 0.0 W/m2
22:19 25.8 °C 9.2 °C 1013.1 hPa SSW 11.1 km/h 16.1 km/h 35% 0 mm 0.0 W/m2
22:27 25.7 °C 9.5 °C 1012.8 hPa SSW 7.9 km/h 16.1 km/h 36% 0 mm 0.0 W/m2
23:10 24.4 °C 8.4 °C 1013.1 hPa Calm     36% 0 mm 0.0 W/m2
23:26 24.2 °C 8.6 °C 1013.1 hPa Calm     37% 0 mm 0.0 W/m2
23:32 23.9 °C 8.7 °C 1013.1 hPa Calm     38% 0 mm 0.0 W/m2
23:48 23.8 °C 8.6 °C 1013.1 hPa Calm     38% 0 mm 0.0 W/m2
23:55 23.5 °C 8.4 °C 1013.1 hPa Calm     38% 0 mm 0.0 W/m2
Canyon Roadhouse, Fishriver Canyon, Namibia
Compliments of Weather Underground - 2.5 mb